Time;durP1;ratioP1;P1;durP2;ratioP2;P2;SDS_P1;SDS_P2;PMS_P1;PMS_P2;Temp;Humidity;BMP_temperature;BMP_pressure;BME280_temperature;BME280_humidity;BME280_pressure;Samples;Min_cycle;Max_cycle;Signal;HPM_P1;HPM_P2
2022/10/14 00:01:16;;;;;;;31.20;15.90;;;7.60;99.90;;;;;;4769499;30;20212;-78
2022/10/14 00:03:43;;;;;;;31.73;15.23;;;7.60;99.90;;;;;;4772025;30;20276;-77
2022/10/14 00:06:19;;;;;;;27.20;14.13;;;7.60;99.90;;;;;;4772620;30;20208;-79
2022/10/14 00:08:46;;;;;;;26.60;14.10;;;7.60;99.90;;;;;;4772308;30;20704;-79
2022/10/14 00:11:20;;;;;;;32.07;14.30;;;7.60;99.90;;;;;;4772444;30;20222;-76
2022/10/14 00:13:49;;;;;;;29.40;14.30;;;7.60;99.90;;;;;;4772062;30;20208;-79
2022/10/14 00:16:22;;;;;;;32.60;15.23;;;7.60;99.90;;;;;;4757536;30;20200;-79
2022/10/14 00:18:50;;;;;;;31.83;14.57;;;7.60;99.90;;;;;;4772264;30;20701;-81
2022/10/14 00:21:17;;;;;;;29.10;14.33;;;7.50;99.90;;;;;;4772071;30;20314;-79
2022/10/14 00:23:48;;;;;;;31.13;14.47;;;7.50;99.90;;;;;;4772067;30;20265;-80
2022/10/14 00:26:34;;;;;;;30.93;14.13;;;7.50;99.90;;;;;;4788325;30;20629;-79
2022/10/14 00:29:05;;;;;;;29.03;14.60;;;7.50;99.90;;;;;;4772112;30;20235;-80
2022/10/14 00:31:36;;;;;;;30.20;14.97;;;7.50;99.90;;;;;;4772039;30;20235;-76
2022/10/14 00:34:29;;;;;;;30.87;15.50;;;7.50;99.90;;;;;;4771913;30;20204;-80
2022/10/14 00:36:56;;;;;;;31.10;14.93;;;7.50;99.90;;;;;;4768415;30;20291;-78
2022/10/14 00:39:25;;;;;;;30.27;15.03;;;7.50;99.90;;;;;;4771944;30;20295;-79
2022/10/14 00:41:52;;;;;;;30.83;14.87;;;7.40;99.90;;;;;;4771532;30;20281;-79
2022/10/14 00:44:23;;;;;;;30.13;14.47;;;7.50;99.90;;;;;;4771840;30;20418;-79
2022/10/14 00:46:54;;;;;;;29.67;15.17;;;7.40;99.90;;;;;;4771846;30;20218;-78
2022/10/14 00:49:36;;;;;;;29.03;14.73;;;7.40;99.90;;;;;;4787861;30;20217;-78
2022/10/14 00:52:14;;;;;;;31.60;15.23;;;7.40;99.90;;;;;;4771788;30;20199;-78
2022/10/14 00:54:53;;;;;;;28.87;14.13;;;7.30;99.90;;;;;;4771838;30;20298;-79
2022/10/14 00:57:22;;;;;;;28.93;13.80;;;7.20;99.90;;;;;;4771694;30;20674;-79
2022/10/14 01:00:09;;;;;;;29.63;14.40;;;7.30;99.90;;;;;;4771812;30;20292;-79
2022/10/14 01:02:36;;;;;;;28.10;13.57;;;7.20;99.90;;;;;;4771690;30;20257;-78
2022/10/14 01:05:05;;;;;;;28.57;15.17;;;7.20;99.90;;;;;;4787526;30;20232;-79
2022/10/14 01:07:47;;;;;;;30.27;14.83;;;7.10;99.90;;;;;;4771750;30;20215;-79
2022/10/14 01:10:33;;;;;;;29.07;14.80;;;7.00;99.90;;;;;;4771689;30;20292;-79
2022/10/14 01:13:03;;;;;;;28.00;14.40;;;7.00;99.90;;;;;;4771487;30;20263;-78
2022/10/14 01:15:40;;;;;;;28.23;14.53;;;7.00;99.90;;;;;;4771393;30;20238;-78
2022/10/14 01:18:41;;;;;;;30.77;14.20;;;7.00;99.90;;;;;;4787692;30;20760;-78
2022/10/14 01:21:15;;;;;;;28.10;14.33;;;7.00;99.90;;;;;;4771604;30;20215;-78
2022/10/14 01:23:55;;;;;;;28.83;14.20;;;7.00;99.90;;;;;;4771491;30;20626;-78
2022/10/14 01:26:40;;;;;;;29.80;14.63;;;7.00;99.90;;;;;;4771334;30;20611;-78
2022/10/14 01:29:42;;;;;;;27.23;13.67;;;7.00;99.90;;;;;;4771307;30;20227;-76
2022/10/14 01:32:25;;;;;;;28.63;14.30;;;7.00;99.90;;;;;;4787703;30;20285;-78
2022/10/14 01:35:10;;;;;;;29.17;14.23;;;7.00;99.90;;;;;;4771437;30;20238;-78
2022/10/14 01:37:46;;;;;;;27.60;14.47;;;6.90;99.90;;;;;;4771377;30;20203;-78
2022/10/14 01:40:24;;;;;;;29.73;14.53;;;6.90;99.90;;;;;;4787489;30;20180;-77
2022/10/14 01:42:52;;;;;;;34.03;15.47;;;6.90;99.90;;;;;;4770866;30;20687;-78
2022/10/14 01:45:28;;;;;;;31.00;14.93;;;6.90;99.90;;;;;;4787121;30;20211;-80
2022/10/14 01:48:00;;;;;;;30.70;14.70;;;7.00;99.90;;;;;;4788022;29;20239;-78
2022/10/14 01:50:38;;;;;;;27.60;14.50;;;7.00;99.90;;;;;;4760014;30;20635;-78
2022/10/14 01:53:13;;;;;;;31.83;14.77;;;7.00;99.90;;;;;;4774764;30;20207;-78
2022/10/14 01:55:46;;;;;;;26.77;14.67;;;6.90;99.90;;;;;;4774792;30;20611;-79
2022/10/14 01:58:16;;;;;;;29.37;14.83;;;7.00;99.90;;;;;;4774578;30;20564;-78
2022/10/14 02:00:46;;;;;;;27.60;15.30;;;7.00;99.90;;;;;;4759801;30;20615;-78
2022/10/14 02:03:14;;;;;;;34.23;15.80;;;7.00;99.90;;;;;;4774504;30;20230;-78
2022/10/14 02:05:48;;;;;;;31.27;15.67;;;7.00;99.90;;;;;;4771141;30;20229;-79
2022/10/14 02:08:35;;;;;;;28.97;15.07;;;7.00;99.90;;;;;;4771411;30;20197;-78
2022/10/14 02:11:14;;;;;;;32.30;15.23;;;7.00;99.90;;;;;;4771513;30;20284;-78
2022/10/14 02:14:01;;;;;;;33.07;16.20;;;7.00;99.90;;;;;;4771254;30;20213;-78
2022/10/14 02:20:18;;;;;;;30.50;14.53;;;7.00;99.90;;;;;;4771559;30;20213;-78
2022/10/14 02:22:53;;;;;;;29.73;14.43;;;7.00;99.90;;;;;;4771037;30;20209;-79
2022/10/14 02:25:29;;;;;;;31.87;15.13;;;6.90;99.90;;;;;;4756351;30;20244;-78
2022/10/14 02:27:59;;;;;;;29.13;15.47;;;6.90;99.90;;;;;;4770542;30;20307;-79
2022/10/14 02:30:30;;;;;;;28.10;15.23;;;6.90;99.90;;;;;;4772263;30;20771;-79
2022/10/14 02:33:00;;;;;;;26.83;14.60;;;6.90;99.90;;;;;;4742140;30;20215;-79
2022/10/14 02:35:30;;;;;;;34.17;14.80;;;6.80;99.90;;;;;;4770757;30;20212;-78
2022/10/14 02:37:58;;;;;;;35.30;16.07;;;6.80;99.90;;;;;;4770865;30;20210;-79
2022/10/14 02:40:32;;;;;;;35.53;15.27;;;6.70;99.90;;;;;;4772103;30;20221;-79
2022/10/14 02:43:09;;;;;;;33.17;15.47;;;6.70;99.90;;;;;;4770739;30;20637;-79
2022/10/14 02:45:37;;;;;;;34.10;15.60;;;6.70;99.90;;;;;;4771822;30;20212;-78
2022/10/14 02:48:10;;;;;;;34.03;15.60;;;6.60;99.90;;;;;;4770821;30;20225;-79
2022/10/14 02:50:40;;;;;;;30.03;14.73;;;6.70;99.90;;;;;;4770543;30;20694;-78
2022/10/14 02:53:08;;;;;;;31.03;15.60;;;6.70;99.90;;;;;;4770663;30;20295;-79
2022/10/14 02:55:38;;;;;;;32.43;15.17;;;6.70;99.90;;;;;;4770443;30;20212;-80
2022/10/14 02:58:06;;;;;;;29.33;15.77;;;6.70;99.90;;;;;;4771613;30;20196;-79
2022/10/14 03:00:33;;;;;;;30.90;15.90;;;6.70;99.90;;;;;;4771188;30;20209;-79
2022/10/14 03:03:01;;;;;;;32.70;15.83;;;6.60;99.90;;;;;;4770508;30;20252;-80
2022/10/14 03:05:28;;;;;;;29.00;15.37;;;6.70;99.90;;;;;;4785642;30;20240;-79
2022/10/14 03:07:56;;;;;;;27.77;15.90;;;6.70;99.90;;;;;;4789449;30;20275;-80
2022/10/14 03:10:24;;;;;;;30.77;15.63;;;6.70;99.90;;;;;;4773423;30;20262;-78
2022/10/14 03:12:51;;;;;;;30.67;16.10;;;6.80;99.90;;;;;;4773165;30;20231;-79
2022/10/14 03:15:18;;;;;;;30.57;15.80;;;6.80;99.90;;;;;;4773038;30;20204;-79
2022/10/14 03:17:45;;;;;;;30.27;16.27;;;6.80;99.90;;;;;;4789322;30;20214;-79
2022/10/14 03:20:13;;;;;;;29.97;15.73;;;6.70;99.90;;;;;;4789319;30;20616;-79
2022/10/14 03:22:41;;;;;;;32.83;15.67;;;6.70;99.90;;;;;;4773239;30;20258;-79
2022/10/14 03:25:11;;;;;;;31.40;15.97;;;6.70;99.90;;;;;;4773161;30;20264;-79
2022/10/14 03:27:39;;;;;;;33.70;16.17;;;6.70;99.90;;;;;;4773342;30;20216;-79
2022/10/14 03:30:06;;;;;;;32.87;16.07;;;6.70;99.90;;;;;;4788779;30;20238;-79
2022/10/14 03:32:37;;;;;;;32.70;16.47;;;6.70;99.90;;;;;;4789109;30;20233;-79
2022/10/14 03:35:04;;;;;;;34.13;17.33;;;6.70;99.90;;;;;;4789051;30;20294;-79
2022/10/14 03:37:32;;;;;;;29.27;16.10;;;6.60;99.90;;;;;;4773140;30;20236;-79
2022/10/14 03:39:59;;;;;;;29.53;16.80;;;6.60;99.90;;;;;;4772990;30;20588;-78
2022/10/14 03:42:26;;;;;;;32.07;16.40;;;6.60;99.90;;;;;;4772718;30;20231;-79
2022/10/14 03:45:00;;;;;;;31.40;16.33;;;6.60;99.90;;;;;;4772623;30;20203;-78
2022/10/14 03:47:29;;;;;;;32.20;16.03;;;6.70;99.90;;;;;;4772651;30;20566;-79
2022/10/14 03:50:04;;;;;;;30.73;16.17;;;6.60;99.90;;;;;;4772568;30;20241;-78
2022/10/14 03:52:34;;;;;;;29.63;16.70;;;6.70;99.90;;;;;;4772825;30;20293;-78
2022/10/14 03:55:02;;;;;;;35.40;17.27;;;6.60;99.90;;;;;;4788607;30;20543;-79
2022/10/14 03:57:29;;;;;;;31.83;17.17;;;6.60;99.90;;;;;;4772403;30;20605;-78
2022/10/14 03:59:57;;;;;;;34.93;17.20;;;6.70;99.90;;;;;;4788322;30;20270;-78
2022/10/14 04:02:31;;;;;;;30.63;16.67;;;6.80;99.90;;;;;;4772818;30;20262;-79
2022/10/14 04:04:59;;;;;;;34.20;16.53;;;6.80;99.90;;;;;;4772089;30;20236;-79
2022/10/14 04:07:32;;;;;;;31.90;17.07;;;6.80;99.90;;;;;;4772394;30;20204;-78
2022/10/14 04:10:10;;;;;;;34.53;17.37;;;6.80;99.90;;;;;;4772224;30;20311;-78
2022/10/14 04:12:42;;;;;;;32.20;16.37;;;6.80;99.90;;;;;;4787612;29;20203;-78
2022/10/14 04:15:10;;;;;;;34.67;18.00;;;6.90;99.90;;;;;;4771899;30;20692;-79
2022/10/14 04:17:37;;;;;;;29.80;15.47;;;6.90;99.90;;;;;;4772270;30;20207;-79
2022/10/14 04:20:05;;;;;;;33.30;16.50;;;6.90;99.90;;;;;;4757629;30;20212;-79
2022/10/14 04:22:32;;;;;;;32.27;16.93;;;6.90;99.90;;;;;;4772074;30;20201;-78
2022/10/14 04:25:00;;;;;;;29.67;16.90;;;6.90;99.90;;;;;;4771761;30;20264;-78
2022/10/14 04:27:27;;;;;;;31.30;16.93;;;6.90;99.90;;;;;;4788330;30;20239;-76
2022/10/14 04:29:55;;;;;;;31.37;16.83;;;6.90;99.90;;;;;;4787857;30;20218;-78
2022/10/14 04:32:22;;;;;;;29.70;16.20;;;6.90;99.90;;;;;;4771996;30;20202;-78
2022/10/14 04:34:51;;;;;;;32.80;16.50;;;6.90;99.90;;;;;;4787891;30;20281;-79
2022/10/14 04:37:18;;;;;;;33.43;16.37;;;6.90;99.90;;;;;;4771876;30;20305;-79
2022/10/14 04:39:46;;;;;;;33.27;17.17;;;6.90;99.90;;;;;;4787921;30;20186;-79
2022/10/14 04:42:13;;;;;;;30.60;16.03;;;6.90;99.90;;;;;;4772000;30;20231;-79
2022/10/14 04:44:49;;;;;;;35.50;17.03;;;6.80;99.90;;;;;;4787753;30;20658;-78
2022/10/14 04:47:31;;;;;;;33.17;16.63;;;6.80;99.90;;;;;;4771796;30;20279;-78
2022/10/14 04:49:59;;;;;;;36.53;17.43;;;6.80;99.90;;;;;;4787943;30;20193;-79
2022/10/14 04:52:29;;;;;;;32.33;17.40;;;6.80;99.90;;;;;;4771639;30;20224;-77
2022/10/14 04:54:57;;;;;;;33.77;17.97;;;6.70;99.90;;;;;;4771397;30;20212;-77
2022/10/14 04:57:27;;;;;;;33.77;16.77;;;6.70;99.90;;;;;;4771608;30;20207;-78
2022/10/14 04:59:55;;;;;;;34.00;17.93;;;6.70;99.90;;;;;;4787751;30;20200;-78
2022/10/14 05:02:22;;;;;;;33.87;17.00;;;6.70;99.90;;;;;;4787720;30;20196;-79
2022/10/14 05:04:50;;;;;;;35.63;17.10;;;6.70;99.90;;;;;;4787486;30;20640;-78
2022/10/14 05:07:18;;;;;;;37.03;16.47;;;6.70;99.90;;;;;;4771285;30;20224;-78
2022/10/14 05:09:48;;;;;;;31.13;16.80;;;6.60;99.90;;;;;;4771547;30;20211;-78
2022/10/14 05:12:23;;;;;;;31.53;16.67;;;6.70;99.90;;;;;;4771661;30;20200;-78
2022/10/14 05:14:50;;;;;;;34.60;17.07;;;6.60;99.90;;;;;;4771280;30;20208;-77
2022/10/14 05:17:19;;;;;;;33.97;17.37;;;6.60;99.90;;;;;;4771523;30;20679;-78
2022/10/14 05:19:46;;;;;;;31.30;17.20;;;6.60;99.90;;;;;;4787402;30;20220;-78
2022/10/14 05:22:16;;;;;;;37.57;18.33;;;6.70;99.90;;;;;;4771695;30;20212;-78
2022/10/14 05:24:44;;;;;;;32.43;17.93;;;6.70;99.90;;;;;;4774248;30;20201;-79
2022/10/14 05:27:11;;;;;;;32.50;17.97;;;6.70;99.90;;;;;;4775000;30;20269;-76
2022/10/14 05:29:39;;;;;;;34.17;18.00;;;6.70;99.90;;;;;;4790870;30;20215;-78
2022/10/14 05:32:07;;;;;;;35.93;17.37;;;6.80;99.90;;;;;;4790952;30;20227;-78
2022/10/14 05:34:34;;;;;;;33.63;18.70;;;6.80;99.90;;;;;;4774643;30;20210;-78
2022/10/14 05:37:02;;;;;;;33.50;18.13;;;6.90;99.90;;;;;;4774763;30;20210;-77
2022/10/14 05:39:29;;;;;;;31.73;17.50;;;6.90;99.90;;;;;;4774838;30;20207;-77
2022/10/14 05:41:59;;;;;;;36.13;18.13;;;6.90;99.90;;;;;;4790690;29;20260;-79
2022/10/14 05:44:26;;;;;;;34.47;18.23;;;7.00;99.90;;;;;;4774352;30;20306;-77
2022/10/14 05:46:54;;;;;;;39.33;18.47;;;7.00;99.90;;;;;;4790731;30;20207;-78
2022/10/14 05:49:21;;;;;;;35.73;18.30;;;7.10;99.90;;;;;;4774670;30;20261;-78
2022/10/14 05:51:48;;;;;;;31.87;17.80;;;7.00;99.90;;;;;;4774502;30;20256;-77
2022/10/14 05:54:15;;;;;;;34.13;18.60;;;7.10;99.90;;;;;;4774275;30;20309;-76
2022/10/14 05:56:42;;;;;;;32.33;17.53;;;7.20;99.90;;;;;;4774158;30;20215;-77
2022/10/14 05:59:10;;;;;;;35.13;17.93;;;7.10;99.90;;;;;;4774946;30;20207;-77
2022/10/14 06:01:38;;;;;;;35.43;18.53;;;7.30;99.90;;;;;;4774159;30;20265;-77
2022/10/14 06:04:05;;;;;;;35.10;18.87;;;7.30;99.90;;;;;;4773922;30;20236;-77
2022/10/14 06:06:33;;;;;;;36.53;18.40;;;7.40;99.90;;;;;;4774459;30;20568;-79
2022/10/14 06:09:00;;;;;;;37.07;19.57;;;7.50;99.90;;;;;;4774172;30;20219;-77
2022/10/14 06:11:26;;;;;;;33.97;19.20;;;7.60;99.90;;;;;;4774400;30;20235;-76
2022/10/14 06:13:53;;;;;;;34.20;18.30;;;7.60;99.90;;;;;;4790405;30;20209;-77
2022/10/14 06:16:20;;;;;;;36.13;18.53;;;7.70;99.90;;;;;;4773969;30;20334;-77
2022/10/14 06:18:47;;;;;;;37.80;19.00;;;7.70;99.90;;;;;;4790103;30;20279;-77
2022/10/14 06:21:20;;;;;;;38.57;18.53;;;7.70;99.90;;;;;;4774200;30;20211;-76
2022/10/14 06:23:48;;;;;;;33.17;18.50;;;7.80;99.90;;;;;;4773991;30;20207;-76
2022/10/14 06:26:15;;;;;;;36.63;18.33;;;7.90;99.90;;;;;;4790029;30;20244;-77
2022/10/14 06:28:45;;;;;;;34.63;19.37;;;8.00;99.90;;;;;;4774067;30;20273;-76
2022/10/14 06:31:15;;;;;;;32.77;18.83;;;8.00;99.90;;;;;;4773824;30;20236;-77
2022/10/14 06:33:42;;;;;;;40.90;19.20;;;8.10;99.90;;;;;;4773682;30;20569;-77
2022/10/14 06:36:12;;;;;;;35.93;19.23;;;8.10;99.90;;;;;;4788777;29;20208;-78
2022/10/14 06:38:39;;;;;;;36.20;19.57;;;8.20;99.90;;;;;;4773821;30;20674;-77
2022/10/14 06:41:06;;;;;;;39.63;19.87;;;8.30;99.90;;;;;;4790146;30;20241;-76
2022/10/14 06:43:34;;;;;;;34.93;18.20;;;8.30;99.90;;;;;;4773573;30;20251;-77
2022/10/14 06:46:06;;;;;;;38.10;19.30;;;8.30;99.90;;;;;;4773118;30;20547;-77
2022/10/14 06:48:32;;;;;;;40.13;19.60;;;8.40;99.90;;;;;;4773687;30;20230;-76
2022/10/14 06:51:01;;;;;;;34.40;18.27;;;8.50;99.90;;;;;;4773593;30;20232;-76
2022/10/14 06:53:44;;;;;;;35.20;18.77;;;8.60;99.90;;;;;;4773410;30;20208;-78
2022/10/14 06:56:11;;;;;;;35.80;18.90;;;8.60;99.90;;;;;;4789547;30;20243;-78
2022/10/14 06:58:39;;;;;;;35.77;19.17;;;8.60;99.90;;;;;;4773452;30;20204;-76
2022/10/14 07:01:07;;;;;;;33.03;19.10;;;8.60;99.90;;;;;;4789424;30;20235;-76
2022/10/14 07:03:35;;;;;;;35.57;18.93;;;8.70;99.90;;;;;;4773341;30;20212;-76
2022/10/14 07:06:09;;;;;;;33.83;18.73;;;8.60;99.90;;;;;;4773661;30;20258;-80
2022/10/14 07:08:36;;;;;;;38.03;19.23;;;8.80;99.90;;;;;;4773303;30;20214;-76
2022/10/14 07:11:04;;;;;;;34.17;19.37;;;9.00;99.90;;;;;;4773245;30;20224;-77
2022/10/14 07:13:38;;;;;;;35.73;19.00;;;9.00;99.90;;;;;;4773250;30;20303;-77
2022/10/14 07:16:09;;;;;;;36.83;19.07;;;9.10;99.90;;;;;;4789173;30;20279;-77
2022/10/14 07:18:41;;;;;;;36.27;19.17;;;9.00;99.90;;;;;;4789279;30;20352;-77
2022/10/14 07:21:18;;;;;;;36.63;19.43;;;9.20;99.90;;;;;;4789190;30;20208;-76
2022/10/14 07:23:46;;;;;;;31.60;18.47;;;9.30;99.90;;;;;;4788948;30;20298;-76
2022/10/14 07:26:17;;;;;;;38.13;18.80;;;9.60;99.90;;;;;;4772754;30;20714;-76
2022/10/14 07:28:44;;;;;;;32.77;18.27;;;9.60;99.90;;;;;;4772454;30;20281;-75
2022/10/14 07:31:17;;;;;;;31.47;17.83;;;9.80;99.90;;;;;;4772691;30;20694;-76
2022/10/14 07:34:00;;;;;;;32.63;18.70;;;10.00;99.90;;;;;;4772789;30;20227;-76
2022/10/14 07:36:27;;;;;;;30.43;18.33;;;10.00;99.90;;;;;;4772854;30;20666;-77
2022/10/14 07:38:54;;;;;;;35.63;19.60;;;10.10;99.90;;;;;;4772381;30;20447;-77
2022/10/14 07:41:35;;;;;;;32.87;17.47;;;10.20;99.90;;;;;;4773166;30;20214;-77
2022/10/14 07:44:08;;;;;;;34.70;17.73;;;10.30;99.90;;;;;;4773059;30;20234;-80
2022/10/14 07:46:38;;;;;;;32.23;17.97;;;10.60;99.90;;;;;;4772708;30;20215;-77
2022/10/14 07:49:06;;;;;;;33.47;17.03;;;10.80;99.90;;;;;;4772431;30;20303;-77
2022/10/14 07:51:34;;;;;;;32.40;17.10;;;10.90;99.90;;;;;;4772628;30;20281;-78
2022/10/14 07:54:08;;;;;;;31.07;17.20;;;11.00;99.90;;;;;;4772641;30;20200;-77
2022/10/14 07:56:37;;;;;;;31.93;16.47;;;11.40;99.90;;;;;;4788887;30;20647;-76
2022/10/14 07:59:05;;;;;;;33.07;17.07;;;11.60;99.90;;;;;;4772283;30;20208;-77
2022/10/14 08:01:32;;;;;;;30.50;17.23;;;12.00;99.90;;;;;;4788260;30;20200;-77
2022/10/14 08:04:14;;;;;;;33.83;17.77;;;12.20;99.90;;;;;;4771642;30;20262;-79
2022/10/14 08:07:03;;;;;;;31.07;17.90;;;12.40;99.90;;;;;;4772216;30;20196;-78
2022/10/14 08:09:30;;;;;;;29.57;17.43;;;12.60;99.90;;;;;;4772155;30;20204;-77
2022/10/14 08:11:58;;;;;;;33.30;17.50;;;12.60;99.90;;;;;;4772216;30;20274;-78
2022/10/14 08:14:28;;;;;;;33.00;17.47;;;12.60;99.90;;;;;;4772172;30;20647;-78
2022/10/14 08:17:17;;;;;;;28.90;17.67;;;12.60;99.90;;;;;;4782918;30;20705;-78
2022/10/14 08:19:48;;;;;;;31.47;17.80;;;12.80;99.90;;;;;;4772073;30;20210;-78
2022/10/14 08:22:20;;;;;;;29.90;17.87;;;13.00;99.90;;;;;;4757659;30;20270;-79
2022/10/14 08:24:48;;;;;;;33.30;17.97;;;13.30;99.90;;;;;;4771710;30;20205;-76
2022/10/14 08:27:16;;;;;;;33.33;17.77;;;13.40;99.90;;;;;;4771841;30;20216;-76
2022/10/14 08:29:46;;;;;;;31.40;17.43;;;13.70;99.90;;;;;;4757850;30;20224;-77
2022/10/14 08:32:13;;;;;;;29.20;17.03;;;13.90;99.90;;;;;;4788049;30;20228;-77
2022/10/14 08:34:41;;;;;;;30.20;17.40;;;14.10;99.90;;;;;;4771966;30;20210;-77
2022/10/14 08:37:10;;;;;;;29.27;16.77;;;14.10;99.90;;;;;;4757274;30;20651;-79
2022/10/14 08:39:37;;;;;;;29.77;16.33;;;14.20;99.90;;;;;;4772266;30;20209;-78
2022/10/14 08:42:38;;;;;;;30.07;17.53;;;14.00;99.90;;;;;;4771833;30;20701;-80
2022/10/14 08:45:14;;;;;;;32.85;18.42;;;14.10;99.90;;;;;;4787162;29;20447;-76
2022/10/14 08:47:45;;;;;;;30.53;18.07;;;14.20;99.90;;;;;;4771092;30;20451;-77
2022/10/14 08:50:35;;;;;;;29.90;17.27;;;14.40;99.90;;;;;;4787566;30;20454;-80
2022/10/14 08:53:12;;;;;;;28.43;16.73;;;14.70;99.90;;;;;;4771531;30;20230;-81
2022/10/14 08:55:53;;;;;;;32.43;16.57;;;14.90;99.90;;;;;;4771344;30;20208;-78
2022/10/14 08:58:37;;;;;;;26.60;16.00;;;15.00;99.90;;;;;;4773985;30;20689;-79
2022/10/14 09:01:17;;;;;;;28.33;15.57;;;14.90;99.90;;;;;;4777645;30;20206;-79
2022/10/14 09:03:44;;;;;;;31.90;16.10;;;15.00;99.90;;;;;;4777508;30;20233;-81
2022/10/14 09:06:29;;;;;;;27.43;15.40;;;15.10;99.90;;;;;;4777707;30;20206;-81
2022/10/14 09:09:24;;;;;;;30.53;15.93;;;15.40;99.90;;;;;;4794608;30;20286;-82
2022/10/14 09:12:00;;;;;;;26.60;14.90;;;15.40;99.90;;;;;;4778277;30;20228;-80
2022/10/14 09:14:46;;;;;;;24.43;14.30;;;15.50;99.90;;;;;;4777977;30;20203;-79
2022/10/14 09:17:26;;;;;;;22.47;13.20;;;15.70;99.90;;;;;;4777624;30;20228;-80
2022/10/14 09:20:22;;;;;;;22.60;12.97;;;15.80;99.90;;;;;;4793337;30;20223;-78
2022/10/14 09:23:09;;;;;;;26.10;14.37;;;16.20;99.90;;;;;;4777929;30;20196;-78
2022/10/14 09:25:39;;;;;;;24.30;13.90;;;16.70;99.90;;;;;;4762737;30;20688;-81
2022/10/14 09:28:38;;;;;;;23.00;13.80;;;17.00;99.90;;;;;;4793424;30;20223;-77
2022/10/14 09:31:28;;;;;;;24.10;13.85;;;17.10;99.90;;;;;;4774889;30;20465;-78
2022/10/14 09:33:56;;;;;;;21.23;12.63;;;17.20;99.90;;;;;;4777284;30;20360;-77
2022/10/14 09:36:23;;;;;;;21.92;14.07;;;17.40;99.90;;;;;;4776939;30;20460;-77
2022/10/14 09:38:52;;;;;;;23.23;12.77;;;17.40;99.90;;;;;;4777248;30;20307;-80
2022/10/14 09:41:25;;;;;;;28.47;13.60;;;17.60;99.90;;;;;;4794046;30;20669;-78
2022/10/14 09:44:12;;;;;;;24.40;12.37;;;17.70;99.90;;;;;;4776945;30;20220;-79
2022/10/14 09:47:09;;;;;;;23.07;12.17;;;18.00;99.90;;;;;;4778342;30;20192;-77
2022/10/14 09:49:45;;;;;;;22.27;12.07;;;18.20;99.90;;;;;;4776896;30;20237;-78
2022/10/14 09:52:22;;;;;;;19.50;11.97;;;18.50;99.90;;;;;;4777284;30;20238;-76
2022/10/14 09:55:02;;;;;;;19.87;12.03;;;18.30;99.90;;;;;;4777171;30;20208;-76
2022/10/14 09:57:31;;;;;;;21.33;11.90;;;17.90;99.90;;;;;;4777704;30;20215;-76
2022/10/14 10:00:01;;;;;;;22.33;12.50;;;17.70;99.90;;;;;;4777057;30;20204;-75
2022/10/14 10:02:40;;;;;;;18.83;11.87;;;17.70;99.90;;;;;;4776732;30;20235;-77
2022/10/14 10:05:26;;;;;;;21.37;11.60;;;17.70;99.90;;;;;;4777037;30;20262;-78
2022/10/14 10:08:17;;;;;;;20.20;11.33;;;17.70;99.90;;;;;;4777813;30;20208;-76
2022/10/14 10:11:08;;;;;;;21.93;11.53;;;17.50;99.90;;;;;;4775082;30;20220;-78
2022/10/14 10:13:40;;;;;;;22.13;11.80;;;17.50;99.90;;;;;;4759816;30;20208;-76
2022/10/14 10:16:20;;;;;;;22.30;12.53;;;17.30;99.90;;;;;;4774154;30;20212;-77
2022/10/14 10:18:49;;;;;;;21.93;11.70;;;17.10;99.90;;;;;;4773977;30;20554;-80
2022/10/14 10:21:26;;;;;;;21.00;12.40;;;16.80;99.90;;;;;;4774119;30;20228;-79
2022/10/14 10:26:42;;;;;;;22.02;12.68;;;16.80;99.90;;;;;;5454163;24;20450;-75
2022/10/14 10:29:31;;;;;;;21.50;11.70;;;16.70;99.90;;;;;;4806051;29;20242;-77
2022/10/14 10:32:21;;;;;;;22.77;12.93;;;16.80;99.90;;;;;;4778017;29;20288;-74
2022/10/14 10:35:24;;;;;;;20.67;11.07;;;17.10;99.90;;;;;;4776695;29;20223;-75
2022/10/14 10:38:05;;;;;;;18.77;11.53;;;17.30;99.90;;;;;;4776776;29;20555;-75
2022/10/14 10:40:40;;;;;;;19.23;11.43;;;17.10;99.90;;;;;;4791641;29;20204;-76
2022/10/14 10:43:31;;;;;;;21.90;11.20;;;16.90;99.90;;;;;;4791456;29;20207;-76
2022/10/14 10:46:13;;;;;;;21.30;11.80;;;16.90;99.90;;;;;;4773308;30;20228;-76
2022/10/14 10:49:00;;;;;;;17.70;11.27;;;16.80;99.90;;;;;;4789640;30;20215;-78
2022/10/14 10:52:14;;;;;;;23.10;13.50;;;16.90;99.90;;;;;;4772745;30;20466;-78
2022/10/14 10:55:24;;;;;;;21.50;12.10;;;17.00;99.90;;;;;;4773199;30;20304;-78
2022/10/14 10:58:05;;;;;;;20.67;11.90;;;17.30;99.90;;;;;;4773256;30;20311;-80
2022/10/14 11:01:08;;;;;;;21.75;12.90;;;17.60;99.90;;;;;;4773536;30;20443;-76
2022/10/14 11:04:00;;;;;;;18.77;11.67;;;17.70;99.90;;;;;;4762154;30;20720;-77
2022/10/14 11:13:27;;;;;;;25.38;12.93;;;18.60;99.90;;;;;;4701630;30;20104;-77
2022/10/14 11:16:32;;;;;;;23.63;14.27;;;19.10;99.90;;;;;;4698061;30;20519;-77
2022/10/14 11:19:32;;;;;;;23.20;12.43;;;19.30;99.90;;;;;;4701984;30;20409;-78
2022/10/14 11:22:11;;;;;;;22.27;14.07;;;19.80;99.90;;;;;;4700157;30;20991;-80
2022/10/14 11:25:26;;;;;;;23.35;14.32;;;20.40;99.90;;;;;;4716053;30;20490;-78
2022/10/14 11:28:02;;;;;;;20.10;12.43;;;20.80;99.90;;;;;;4699910;30;20468;-77
2022/10/14 11:30:43;;;;;;;22.27;12.90;;;21.30;99.90;;;;;;4701624;30;20221;-78
2022/10/14 11:33:43;;;;;;;23.13;13.47;;;21.10;99.90;;;;;;4716250;30;20277;-78
2022/10/14 11:36:13;;;;;;;21.97;12.57;;;20.90;99.90;;;;;;4701885;30;20199;-78
2022/10/14 11:39:24;;;;;;;20.37;13.10;;;20.70;99.90;;;;;;4716246;30;20242;-82
2022/10/14 11:42:26;;;;;;;20.70;12.40;;;21.20;99.90;;;;;;4713924;30;20215;-82
2022/10/14 11:45:17;;;;;;;19.93;12.23;;;21.90;99.90;;;;;;4701440;30;20323;-77
2022/10/14 11:47:54;;;;;;;21.87;12.53;;;21.90;99.90;;;;;;4770598;30;20243;-79
2022/10/14 11:50:36;;;;;;;21.60;13.47;;;22.40;99.90;;;;;;4788533;30;20207;-78
2022/10/14 11:53:41;;;;;;;25.35;16.25;;;22.50;99.90;;;;;;4758440;30;20486;-80
2022/10/14 11:56:42;;;;;;;23.40;13.97;;;22.60;99.90;;;;;;4772119;30;20212;-82
2022/10/14 12:00:01;;;;;;;25.13;14.87;;;23.00;99.90;;;;;;4771996;30;20211;-80
2022/10/14 12:02:55;;;;;;;24.40;16.30;;;22.90;99.90;;;;;;4715648;30;20579;-80
2022/10/14 12:05:37;;;;;;;25.50;16.30;;;22.90;99.90;;;;;;4699900;30;20489;-79
2022/10/14 12:08:39;;;;;;;25.20;16.85;;;22.60;99.90;;;;;;4700534;30;20852;-81
2022/10/14 12:11:13;;;;;;;23.17;15.02;;;23.00;99.90;;;;;;4715830;30;20312;-81
2022/10/14 12:13:46;;;;;;;27.73;17.83;;;23.40;99.90;;;;;;4714912;30;20472;-82
2022/10/14 12:16:18;;;;;;;25.25;15.30;;;23.80;99.90;;;;;;4715696;30;20215;-81
2022/10/14 12:18:48;;;;;;;24.00;15.15;;;23.30;99.90;;;;;;4715340;30;20301;-81
2022/10/14 12:21:39;;;;;;;24.30;15.37;;;23.40;99.90;;;;;;4699510;30;20218;-84
2022/10/14 12:24:30;;;;;;;26.35;15.88;;;23.20;99.90;;;;;;4700735;30;20203;-83
2022/10/14 12:27:00;;;;;;;23.93;15.33;;;22.60;99.90;;;;;;4715398;30;20238;-82
2022/10/14 12:29:32;;;;;;;26.33;16.17;;;22.10;99.90;;;;;;4714698;30;20821;-81
2022/10/14 12:32:31;;;;;;;27.47;15.67;;;21.60;99.90;;;;;;4700564;30;20238;-78
2022/10/14 12:35:02;;;;;;;23.00;15.20;;;21.30;99.90;;;;;;4713246;30;20211;-80
2022/10/14 12:37:36;;;;;;;26.87;15.37;;;20.90;99.90;;;;;;4771882;30;20215;-79
2022/10/14 12:40:11;;;;;;;23.70;14.40;;;20.50;99.90;;;;;;4772204;30;20570;-79
2022/10/14 12:43:00;;;;;;;20.90;14.03;;;20.20;99.90;;;;;;4771972;30;20568;-80
2022/10/14 12:45:29;;;;;;;26.90;14.60;;;19.90;99.90;;;;;;4771575;30;20343;-79
2022/10/14 12:48:13;;;;;;;26.95;16.98;;;19.60;99.90;;;;;;4770706;30;20459;-78
2022/10/14 12:50:42;;;;;;;22.70;14.87;;;19.30;99.90;;;;;;4788022;30;20279;-82
2022/10/14 12:53:21;;;;;;;23.80;13.77;;;19.00;99.90;;;;;;4772184;30;20264;-80
2022/10/14 12:56:00;;;;;;;22.33;14.03;;;18.90;99.90;;;;;;4771668;30;20208;-80
2022/10/14 12:58:39;;;;;;;26.20;14.90;;;18.90;99.90;;;;;;4771593;30;20331;-81
2022/10/14 13:01:22;;;;;;;25.53;15.10;;;18.80;99.90;;;;;;4771861;30;20204;-79
2022/10/14 13:03:59;;;;;;;24.53;14.60;;;18.60;99.90;;;;;;4772261;30;20212;-81
2022/10/14 13:06:34;;;;;;;24.53;14.27;;;18.40;99.90;;;;;;4772025;30;20200;-78
2022/10/14 13:09:11;;;;;;;27.47;15.17;;;18.40;99.90;;;;;;4787641;29;20204;-79
2022/10/14 13:11:40;;;;;;;25.47;14.00;;;18.30;99.90;;;;;;4771840;30;20214;-79
2022/10/14 13:14:31;;;;;;;21.50;14.27;;;18.30;99.90;;;;;;4771703;30;20232;-79
2022/10/14 13:17:43;;;;;;;24.73;15.07;;;18.10;99.90;;;;;;4778053;24;20738;-80
2022/10/14 13:20:33;;;;;;;28.37;15.40;;;18.00;99.90;;;;;;4771711;30;20235;-82
2022/10/14 13:23:21;;;;;;;24.53;15.17;;;17.70;99.90;;;;;;4788105;29;20291;-82
2022/10/14 13:25:51;;;;;;;25.83;15.77;;;17.50;99.90;;;;;;4771565;30;20207;-80
2022/10/14 13:28:38;;;;;;;26.97;15.77;;;17.30;99.90;;;;;;4771364;30;20204;-80